Aviation Digital Data Service (ADDS)

Output produced by TAFs form (1409 UTC 31 May 2016)
found at http://aviationweather.gov/adds/tafs/
 
KLND 311124Z 3112/0112 VRB05KT P6SM BKN050 
     FM311600 VRB05KT P6SM SCT050 
     FM010300 VRB05KT P6SM SKC